createdAt,value
2022-10-22T00:01:24.748Z,3.55
2022-10-22T00:03:52.898Z,3.55
2022-10-22T00:06:20.332Z,3.53
2022-10-22T00:08:47.607Z,3.55
2022-10-22T00:11:19.262Z,3.55
2022-10-22T00:13:52.206Z,3.59
2022-10-22T00:16:19.801Z,3.56
2022-10-22T00:18:46.900Z,3.60
2022-10-22T00:21:14.404Z,3.65
2022-10-22T00:23:44.051Z,3.68
2022-10-22T00:26:11.737Z,3.67
2022-10-22T00:28:39.417Z,3.67
2022-10-22T00:31:07.993Z,3.69
2022-10-22T00:33:35.248Z,3.73
2022-10-22T00:36:03.006Z,3.77
2022-10-22T00:38:31.178Z,3.83
2022-10-22T00:40:58.964Z,3.92
2022-10-22T00:43:28.142Z,3.97
2022-10-22T00:45:55.678Z,4.03
2022-10-22T00:48:32.509Z,4.08
2022-10-22T00:51:12.062Z,4.05
2022-10-22T00:53:47.283Z,4.12
2022-10-22T00:56:15.730Z,4.15
2022-10-22T00:58:50.520Z,4.23
2022-10-22T01:01:21.919Z,4.29
2022-10-22T01:03:51.284Z,4.26
2022-10-22T01:06:29.719Z,4.36
2022-10-22T01:09:17.633Z,4.39
2022-10-22T01:12:00.060Z,4.50
2022-10-22T01:14:39.623Z,4.50
2022-10-22T01:17:14.064Z,4.55
2022-10-22T01:19:59.574Z,4.67
2022-10-22T01:22:36.247Z,4.72
2022-10-22T01:25:28.014Z,4.74
2022-10-22T01:28:10.464Z,4.77
2022-10-22T01:30:39.625Z,4.73
2022-10-22T01:33:08.908Z,4.79
2022-10-22T01:35:41.939Z,4.78
2022-10-22T01:38:14.474Z,4.76
2022-10-22T01:40:42.900Z,4.80
2022-10-22T01:43:11.805Z,4.84
2022-10-22T01:45:47.545Z,4.84
2022-10-22T01:48:51.800Z,4.93
2022-10-22T01:51:39.142Z,4.98
2022-10-22T01:54:25.324Z,5.01
2022-10-22T01:57:47.200Z,5.06
2022-10-22T02:00:17.628Z,5.09
2022-10-22T02:03:06.094Z,5.13
2022-10-22T02:05:43.579Z,5.11
2022-10-22T02:08:22.684Z,5.17
2022-10-22T02:10:51.654Z,5.21
2022-10-22T02:13:24.744Z,5.19
2022-10-22T02:15:53.472Z,5.27
2022-10-22T02:18:25.796Z,5.28
2022-10-22T02:20:54.056Z,5.34
2022-10-22T02:23:22.246Z,5.34
2022-10-22T02:26:00.596Z,5.32
2022-10-22T02:28:46.918Z,5.36
2022-10-22T02:31:19.876Z,5.37
2022-10-22T02:33:51.869Z,5.43
2022-10-22T02:36:21.174Z,5.43
2022-10-22T02:38:51.733Z,5.44
2022-10-22T02:41:20.422Z,5.51
2022-10-22T02:43:54.847Z,5.57
2022-10-22T02:46:25.404Z,5.66
2022-10-22T02:48:52.624Z,5.68
2022-10-22T02:51:20.090Z,5.83
2022-10-22T02:53:49.741Z,6.02
2022-10-22T02:56:17.459Z,6.17
2022-10-22T02:58:44.534Z,6.28
2022-10-22T03:01:15.284Z,6.43
2022-10-22T03:03:43.380Z,6.48
2022-10-22T03:06:10.778Z,6.55
2022-10-22T03:08:37.791Z,6.68
2022-10-22T03:11:05.272Z,6.71
2022-10-22T03:13:32.901Z,6.77
2022-10-22T03:16:01.139Z,6.78
2022-10-22T03:18:28.348Z,6.83
2022-10-22T03:21:08.151Z,6.86
2022-10-22T03:23:36.127Z,6.86
2022-10-22T03:26:06.698Z,6.87
2022-10-22T03:28:36.298Z,6.85
2022-10-22T03:31:03.966Z,6.86
2022-10-22T03:33:30.973Z,6.85
2022-10-22T03:36:00.520Z,6.82
2022-10-22T03:38:32.217Z,6.87
2022-10-22T03:41:00.214Z,6.82
2022-10-22T03:43:27.671Z,6.86
2022-10-22T03:45:55.309Z,6.97
2022-10-22T03:48:22.327Z,6.97
2022-10-22T03:50:59.097Z,7.05
2022-10-22T03:53:29.044Z,7.03
2022-10-22T03:56:00.332Z,7.09
2022-10-22T03:58:27.682Z,6.99
2022-10-22T04:00:57.812Z,7.07
2022-10-22T04:03:26.040Z,7.06
2022-10-22T04:05:56.796Z,7.15
2022-10-22T04:14:02.367Z,7.22
2022-10-22T04:16:33.166Z,7.33
2022-10-22T04:27:53.165Z,7.72
2022-10-22T04:30:20.909Z,7.81
2022-10-22T04:32:47.934Z,7.87
2022-10-22T04:35:17.882Z,7.96
2022-10-22T04:37:45.415Z,7.98
2022-10-22T04:40:13.275Z,8.03
2022-10-22T04:42:40.536Z,8.11
2022-10-22T04:45:12.547Z,8.07
2022-10-22T04:50:35.900Z,8.12
2022-10-22T04:53:04.319Z,8.21
2022-10-22T04:57:58.765Z,8.26
2022-10-22T05:00:28.871Z,8.30
2022-10-22T05:02:56.247Z,8.34
2022-10-22T05:05:23.460Z,8.34
2022-10-22T05:07:52.275Z,8.41
2022-10-22T05:10:19.286Z,8.43
2022-10-22T05:12:51.867Z,8.50
2022-10-22T05:15:18.875Z,8.50
2022-10-22T05:17:46.161Z,8.52
2022-10-22T05:20:13.409Z,8.58
2022-10-22T05:29:33.636Z,8.68
2022-10-22T05:46:12.697Z,8.98
2022-10-22T05:48:42.447Z,8.96
2022-10-22T05:59:19.747Z,9.25
2022-10-22T06:01:48.164Z,9.29
2022-10-22T06:04:16.239Z,9.29
2022-10-22T06:06:51.400Z,9.39
2022-10-22T06:09:25.265Z,9.47
2022-10-22T06:11:56.217Z,9.48
2022-10-22T06:14:46.189Z,9.51
2022-10-22T06:17:16.583Z,9.48
2022-10-22T06:19:43.636Z,9.57
2022-10-22T06:22:11.129Z,9.61
2022-10-22T06:24:40.484Z,9.65
2022-10-22T06:29:52.387Z,9.75
2022-10-22T06:32:19.747Z,9.79
2022-10-22T06:37:31.869Z,9.91
2022-10-22T06:39:58.936Z,9.93
2022-10-22T06:42:29.732Z,9.99
2022-10-22T06:47:34.507Z,10.11
2022-10-22T06:50:01.552Z,10.15
2022-10-22T06:52:28.992Z,10.20
2022-10-22T06:54:56.032Z,10.25
2022-10-22T06:57:23.378Z,10.38
2022-10-22T06:59:50.337Z,10.41
2022-10-22T07:02:17.650Z,10.49
2022-10-22T07:04:44.732Z,10.56
2022-10-22T07:07:12.526Z,10.57
2022-10-22T07:09:47.750Z,10.66
2022-10-22T07:12:17.884Z,10.74
2022-10-22T07:14:46.129Z,10.83
2022-10-22T07:17:13.769Z,10.93
2022-10-22T07:19:42.253Z,10.98
2022-10-22T07:25:01.559Z,11.21
2022-10-22T07:27:33.576Z,11.27
2022-10-22T07:30:01.820Z,11.35
2022-10-22T07:32:31.385Z,11.39
2022-10-22T07:35:00.653Z,11.42
2022-10-22T07:37:28.387Z,11.44
2022-10-22T07:40:01.482Z,11.53
2022-10-22T07:42:46.267Z,11.62
2022-10-22T07:45:31.114Z,11.71
2022-10-22T07:48:00.787Z,11.83
2022-10-22T07:50:27.952Z,11.87
2022-10-22T07:53:10.549Z,11.98
2022-10-22T07:55:40.277Z,12.03
2022-10-22T07:58:07.279Z,12.11
2022-10-22T08:00:34.817Z,12.14
2022-10-22T08:03:05.841Z,12.24
2022-10-22T08:05:33.555Z,12.25
2022-10-22T08:10:47.059Z,12.44
2022-10-22T08:13:14.974Z,12.55
2022-10-22T08:15:47.496Z,12.64
2022-10-22T08:21:03.904Z,12.80
2022-10-22T08:23:31.108Z,12.83
2022-10-22T08:25:58.615Z,12.86
2022-10-22T08:28:31.088Z,12.88
2022-10-22T08:30:58.818Z,12.93
2022-10-22T08:33:27.080Z,12.99
2022-10-22T08:36:02.574Z,13.03
2022-10-22T08:38:31.471Z,13.07
2022-10-22T08:41:20.588Z,13.13
2022-10-22T08:43:58.914Z,13.14
2022-10-22T08:46:47.689Z,13.31
2022-10-22T08:52:57.556Z,13.66
2022-10-22T08:55:28.166Z,13.77
2022-10-22T08:58:18.805Z,13.89
2022-10-22T09:01:45.153Z,14.06
2022-10-22T09:04:25.608Z,14.24
2022-10-22T09:06:55.476Z,14.33
2022-10-22T09:09:27.911Z,14.42
2022-10-22T09:11:58.159Z,14.68
2022-10-22T09:14:26.969Z,14.81
2022-10-22T09:17:06.388Z,15.02
2022-10-22T09:19:55.863Z,15.30
2022-10-22T09:22:40.641Z,15.82
2022-10-22T09:25:42.915Z,16.37
2022-10-22T09:28:13.105Z,16.22
2022-10-22T09:30:41.834Z,16.08
2022-10-22T09:36:42.938Z,15.76
2022-10-22T09:39:35.389Z,15.69
2022-10-22T09:42:03.196Z,15.49
2022-10-22T09:44:35.755Z,15.43
2022-10-22T09:47:37.346Z,15.40
2022-10-22T09:50:20.661Z,15.41
2022-10-22T09:53:14.835Z,15.34
2022-10-22T09:55:43.831Z,15.21
2022-10-22T10:01:48.023Z,15.14
2022-10-22T10:04:34.737Z,15.04
2022-10-22T10:07:02.502Z,14.95
2022-10-22T10:09:35.539Z,14.98
2022-10-22T10:12:38.828Z,14.94
2022-10-22T10:15:30.013Z,15.05
2022-10-22T10:18:11.996Z,15.09
2022-10-22T10:21:08.530Z,15.17
2022-10-22T10:24:14.926Z,15.22
2022-10-22T10:27:02.592Z,15.18
2022-10-22T10:29:57.638Z,15.06
2022-10-22T10:33:01.625Z,15.12
2022-10-22T10:36:04.712Z,15.15
2022-10-22T10:42:19.345Z,15.41
2022-10-22T10:45:05.018Z,15.45
2022-10-22T10:48:02.456Z,15.53
2022-10-22T10:50:35.348Z,15.63
2022-10-22T10:53:23.774Z,15.77
2022-10-22T10:56:25.293Z,16.04
2022-10-22T10:59:12.630Z,16.23
2022-10-22T11:01:42.539Z,16.42
2022-10-22T11:04:31.072Z,16.39
2022-10-22T11:07:11.042Z,16.27
2022-10-22T11:09:47.672Z,16.08
2022-10-22T11:12:24.018Z,16.03
2022-10-22T11:15:09.421Z,16.02
2022-10-22T11:17:41.619Z,15.92
2022-10-22T11:20:28.644Z,16.17
2022-10-22T11:23:23.056Z,16.27
2022-10-22T11:25:51.679Z,16.49
2022-10-22T11:28:28.521Z,16.73
2022-10-22T11:31:04.884Z,16.70
2022-10-22T11:33:44.594Z,16.68
2022-10-22T11:36:16.238Z,16.71
2022-10-22T11:38:43.455Z,16.90
2022-10-22T11:41:14.448Z,17.25
2022-10-22T11:44:26.247Z,17.38
2022-10-22T11:46:53.415Z,17.36
2022-10-22T11:49:41.500Z,17.43
2022-10-22T11:52:31.607Z,17.34
2022-10-22T11:55:02.730Z,17.06
2022-10-22T11:57:38.381Z,16.76
2022-10-22T12:03:43.981Z,16.68
2022-10-22T12:06:14.499Z,16.77
2022-10-22T12:08:49.495Z,16.87
2022-10-22T12:11:36.431Z,16.94
2022-10-22T12:14:23.451Z,17.00
2022-10-22T12:17:00.051Z,17.06
2022-10-22T12:19:44.504Z,17.07
2022-10-22T12:26:13.149Z,17.01
2022-10-22T12:32:19.934Z,16.80
2022-10-22T12:37:20.161Z,16.75
2022-10-22T12:39:48.532Z,16.75
2022-10-22T12:42:25.341Z,16.66
2022-10-22T12:45:11.621Z,16.65
2022-10-22T12:53:32.384Z,16.34
2022-10-22T12:56:17.678Z,16.29
2022-10-22T12:59:01.818Z,16.27
2022-10-22T13:01:37.840Z,16.32
2022-10-22T13:04:25.926Z,16.44
2022-10-22T13:10:02.849Z,16.50
2022-10-22T13:12:45.397Z,16.61
2022-10-22T13:15:35.484Z,16.70
2022-10-22T13:18:22.903Z,16.75
2022-10-22T13:21:03.741Z,16.76
2022-10-22T13:23:41.869Z,16.81
2022-10-22T13:26:17.092Z,16.77
2022-10-22T13:28:54.268Z,16.78
2022-10-22T13:31:28.671Z,16.75
2022-10-22T13:33:58.779Z,16.72
2022-10-22T13:36:27.613Z,16.66
2022-10-22T13:41:54.477Z,16.65
2022-10-22T13:47:41.529Z,16.67
2022-10-22T13:56:32.496Z,16.64
2022-10-22T13:59:22.821Z,16.72
2022-10-22T14:04:45.957Z,16.59
2022-10-22T14:07:18.739Z,16.53
2022-10-22T14:12:52.300Z,16.42
2022-10-22T14:15:25.418Z,16.30
2022-10-22T14:17:56.825Z,16.25
2022-10-22T14:20:49.787Z,16.12
2022-10-22T14:23:23.481Z,16.11
2022-10-22T14:25:53.724Z,16.01
2022-10-22T14:28:23.287Z,15.97
2022-10-22T14:39:19.840Z,15.67
2022-10-22T14:41:48.073Z,15.59
2022-10-22T14:44:18.591Z,15.48
2022-10-22T14:46:59.215Z,15.43
2022-10-22T14:49:36.461Z,15.31
2022-10-22T14:52:14.846Z,15.22
2022-10-22T14:54:53.095Z,15.14
2022-10-22T15:00:10.691Z,14.94
2022-10-22T15:02:40.045Z,14.88
2022-10-22T15:05:08.913Z,14.74
2022-10-22T15:07:45.166Z,14.73
2022-10-22T15:10:18.322Z,14.61
2022-10-22T15:12:50.056Z,14.51
2022-10-22T15:15:22.600Z,14.45
2022-10-22T15:18:00.524Z,14.28
2022-10-22T15:20:28.003Z,14.23
2022-10-22T15:22:58.219Z,14.11
2022-10-22T15:25:28.675Z,14.07
2022-10-22T15:28:00.812Z,13.95
2022-10-22T15:30:36.384Z,13.90
2022-10-22T15:33:03.430Z,13.72
2022-10-22T15:35:30.718Z,13.65
2022-10-22T15:37:57.952Z,13.53
2022-10-22T15:40:25.401Z,13.44
2022-10-22T15:42:52.493Z,13.42
2022-10-22T15:45:22.043Z,13.31
2022-10-22T15:47:49.663Z,13.22
2022-10-22T15:50:17.187Z,13.19
2022-10-22T15:52:44.333Z,13.06
2022-10-22T15:57:42.145Z,12.99
2022-10-22T16:00:14.617Z,12.93
2022-10-22T16:02:41.784Z,12.92
2022-10-22T16:05:09.807Z,12.85
2022-10-22T16:07:40.132Z,12.72
2022-10-22T16:10:08.082Z,12.72
2022-10-22T16:12:40.986Z,12.67
2022-10-22T16:15:11.675Z,12.52
2022-10-22T16:17:48.275Z,12.42
2022-10-22T16:20:21.003Z,12.35
2022-10-22T16:22:57.060Z,12.35
2022-10-22T16:28:24.200Z,12.27
2022-10-22T16:34:19.242Z,12.13
2022-10-22T16:39:41.670Z,12.00
2022-10-22T16:42:14.749Z,11.98
2022-10-22T16:44:46.131Z,11.90
2022-10-22T16:47:15.026Z,11.87
2022-10-22T16:49:42.393Z,11.79
2022-10-22T16:52:10.976Z,11.80
2022-10-22T16:54:38.096Z,11.75
2022-10-22T16:57:05.953Z,11.72
2022-10-22T16:59:41.795Z,11.74
2022-10-22T17:02:11.776Z,11.66
2022-10-22T17:04:39.198Z,11.73
2022-10-22T17:07:14.526Z,11.68
2022-10-22T17:09:42.470Z,11.75
2022-10-22T17:12:10.262Z,11.72
2022-10-22T17:14:40.083Z,11.75
2022-10-22T17:17:30.450Z,11.76
2022-10-22T17:20:00.131Z,11.69
2022-10-22T17:22:27.411Z,11.59
2022-10-22T17:25:20.316Z,11.51
2022-10-22T17:27:52.159Z,11.38
2022-10-22T17:30:23.510Z,11.38
2022-10-22T17:32:54.258Z,11.33
2022-10-22T17:35:21.648Z,11.31
2022-10-22T17:37:49.313Z,11.32
2022-10-22T17:40:31.153Z,11.31
2022-10-22T17:43:03.775Z,11.29
2022-10-22T17:45:32.362Z,11.28
2022-10-22T17:47:59.664Z,11.22
2022-10-22T17:50:36.010Z,11.22
2022-10-22T17:53:04.462Z,11.14
2022-10-22T17:55:35.237Z,11.14
2022-10-22T17:58:07.550Z,11.16
2022-10-22T18:00:38.357Z,11.19
2022-10-22T18:03:07.060Z,11.12
2022-10-22T18:05:34.160Z,11.15
2022-10-22T18:08:05.622Z,11.16
2022-10-22T18:10:39.913Z,11.21
2022-10-22T18:13:23.554Z,11.21
2022-10-22T18:15:56.167Z,11.24
2022-10-22T18:18:24.887Z,11.26
2022-10-22T18:20:55.571Z,11.27
2022-10-22T18:23:22.672Z,11.29
2022-10-22T18:25:50.079Z,11.31
2022-10-22T18:28:19.311Z,11.35
2022-10-22T18:30:49.425Z,11.32
2022-10-22T18:36:11.123Z,11.34
2022-10-22T18:38:40.970Z,11.25
2022-10-22T18:41:15.510Z,11.29
2022-10-22T18:43:42.609Z,11.26
2022-10-22T18:46:10.568Z,11.25
2022-10-22T18:48:37.629Z,11.25
2022-10-22T18:51:09.760Z,11.30
2022-10-22T18:53:38.218Z,11.27
2022-10-22T18:56:07.873Z,11.26
2022-10-22T18:58:43.224Z,11.30
2022-10-22T19:01:29.483Z,11.31
2022-10-22T19:03:57.456Z,11.35
2022-10-22T19:06:34.497Z,11.28
2022-10-22T19:09:04.756Z,11.29
2022-10-22T19:11:32.463Z,11.31
2022-10-22T19:14:02.654Z,11.33
2022-10-22T19:16:30.100Z,11.34
2022-10-22T19:19:05.473Z,11.35
2022-10-22T19:21:41.859Z,11.35
2022-10-22T19:24:17.536Z,11.35
2022-10-22T19:26:46.368Z,11.38
2022-10-22T19:29:20.060Z,11.39
2022-10-22T19:31:53.530Z,11.33
2022-10-22T19:34:21.314Z,11.36
2022-10-22T19:36:52.686Z,11.30
2022-10-22T19:39:22.701Z,11.32
2022-10-22T19:41:54.393Z,11.33
2022-10-22T19:44:23.926Z,11.29
2022-10-22T19:46:51.236Z,11.35
2022-10-22T19:49:26.619Z,11.29
2022-10-22T19:51:53.850Z,11.27
2022-10-22T19:54:21.941Z,11.26
2022-10-22T19:56:50.064Z,11.27
2022-10-22T19:59:17.949Z,11.30
2022-10-22T20:01:46.732Z,11.27
2022-10-22T20:04:16.287Z,11.23
2022-10-22T20:06:44.978Z,11.26
2022-10-22T20:12:23.655Z,11.25
2022-10-22T20:14:52.011Z,11.23
2022-10-22T20:17:19.951Z,11.25
2022-10-22T20:19:52.545Z,11.29
2022-10-22T20:22:23.002Z,11.26
2022-10-22T20:24:50.240Z,11.24
2022-10-22T20:27:19.746Z,11.25
2022-10-22T20:29:46.805Z,11.26
2022-10-22T20:32:14.262Z,11.25
2022-10-22T20:34:42.559Z,11.27
2022-10-22T20:37:10.189Z,11.35
2022-10-22T20:39:37.671Z,11.35
2022-10-22T20:42:07.693Z,11.27
2022-10-22T20:44:34.815Z,11.32
2022-10-22T20:47:02.113Z,11.28
2022-10-22T20:49:30.442Z,11.31
2022-10-22T20:51:57.830Z,11.27
2022-10-22T20:54:26.880Z,11.27
2022-10-22T20:56:54.650Z,11.34
2022-10-22T20:59:21.897Z,11.31
2022-10-22T21:01:53.168Z,11.35
2022-10-22T21:04:21.371Z,11.35
2022-10-22T21:06:50.440Z,11.37
2022-10-22T21:09:19.409Z,11.37
2022-10-22T21:11:51.478Z,11.36
2022-10-22T21:14:23.096Z,11.43
2022-10-22T21:16:52.292Z,11.43
2022-10-22T21:19:20.283Z,11.44
2022-10-22T21:21:48.372Z,11.53
2022-10-22T21:24:15.723Z,11.49
2022-10-22T21:26:43.379Z,11.48
2022-10-22T21:29:12.785Z,11.51
2022-10-22T21:31:43.482Z,11.53
2022-10-22T21:34:17.250Z,11.48
2022-10-22T21:36:45.086Z,11.52
2022-10-22T21:39:13.726Z,11.57
2022-10-22T21:41:41.292Z,11.64
2022-10-22T21:44:08.427Z,11.62
2022-10-22T21:46:35.731Z,11.56
2022-10-22T21:49:03.960Z,11.63
2022-10-22T21:51:33.303Z,11.57
2022-10-22T21:54:00.578Z,11.51
2022-10-22T21:56:33.223Z,11.53
2022-10-22T21:59:02.673Z,11.48
2022-10-22T22:01:30.522Z,11.48
2022-10-22T22:03:57.632Z,11.49
2022-10-22T22:06:29.512Z,11.48
2022-10-22T22:08:59.370Z,11.50
2022-10-22T22:11:28.186Z,11.45
2022-10-22T22:13:56.857Z,11.45
2022-10-22T22:16:28.770Z,11.47
2022-10-22T22:18:59.217Z,11.47
2022-10-22T22:21:26.666Z,11.48
2022-10-22T22:23:55.549Z,11.52
2022-10-22T22:26:28.609Z,11.51
2022-10-22T22:28:59.137Z,11.56
2022-10-22T22:31:32.279Z,11.58
2022-10-22T22:34:05.762Z,11.58
2022-10-22T22:36:35.988Z,11.51
2022-10-22T22:39:05.243Z,11.60
2022-10-22T22:41:32.893Z,11.58
2022-10-22T22:43:59.911Z,11.54
2022-10-22T22:46:27.200Z,11.55
2022-10-22T22:48:54.588Z,11.53
2022-10-22T22:51:22.906Z,11.48
2022-10-22T22:53:50.226Z,11.44
2022-10-22T22:56:23.466Z,11.44
2022-10-22T22:58:51.447Z,11.43
2022-10-22T23:01:29.592Z,11.35
2022-10-22T23:04:01.109Z,11.24
2022-10-22T23:06:31.829Z,11.17
2022-10-22T23:08:59.436Z,11.16
2022-10-22T23:11:27.856Z,11.21
2022-10-22T23:14:00.296Z,11.27
2022-10-22T23:16:32.932Z,11.28
2022-10-22T23:19:00.985Z,11.29
2022-10-22T23:21:34.119Z,11.31
2022-10-22T23:24:04.882Z,11.36
2022-10-22T23:26:40.319Z,11.41
2022-10-22T23:29:13.888Z,11.41
2022-10-22T23:31:41.886Z,11.42
2022-10-22T23:34:10.782Z,11.41
2022-10-22T23:36:39.178Z,11.44
2022-10-22T23:39:15.830Z,11.41
2022-10-22T23:41:43.555Z,11.43
2022-10-22T23:44:11.138Z,11.42
2022-10-22T23:46:38.735Z,11.46
2022-10-22T23:49:07.302Z,11.43
2022-10-22T23:51:34.644Z,11.41
2022-10-22T23:54:07.786Z,11.35
2022-10-22T23:56:35.899Z,11.38
2022-10-22T23:59:04.668Z,11.41
